Tobias Selnaes

Olheiro-Chefe - Stromsgodset
13 Nov 2027
Sábado
Processo

Personalidade

Adaptabilidade (18) Ambição (11) Controvérsia (18) Lealdade (17) Pressão (9) Profissionalismo (2) Espírito Esportivo (7) Temperamento (7)

Perfil

Estilo de Treinamento Democrático
Licença Continental C
Determinação 4
Gestão de Pessoas 7
Motivação 4
Disciplina 6
Satisfação no Trabalho
100%
Fadiga
0%
Função Olheiro-Chefe
Salário 44.7K p/s
Contrato 14.03.2030

Desempenho

Comportamento Bom
Eficácia do Treinamento
24%
Desenvolvimento do Jogador
25%
Prevenção de Lesões
25%
Implementação Tática
20%

Eventos Recentes

Participou de uma reunião de recrutamento 7d atrás
Recomendou um alvo de transferência 7d atrás
Participou de uma reunião de recrutamento 14d atrás
Recomendou um alvo de transferência 14d atrás
Participou de uma reunião de recrutamento 21d atrás
Recomendou um alvo de transferência 21d atrás
Participou de uma reunião de recrutamento 28d atrás
Recomendou um alvo de transferência 28d atrás

Monitorando agora

76
Jogador Clube Status Habilidade Confiança Observado Última observação Último voto
Fillip Jenssen Riise Stabaek Ativo 103 / 107 72% 1 16.08.2027 Aprovar
Jalen Blesa Rio Ave Ativo 126 / 125 40% 2 23.03.2027 -
Yousef Salech Cardiff City Ativo 131 / 130 40% 1 23.03.2027 -
Cameron Archer Southampton Ativo 124 / 113 40% 1 01.03.2027 -
Mohamed-Ali Cho Hull City Ativo 128 / 127 40% 1 01.03.2027 -
Brayan Gil Baltika Ativo 129 / 119 40% 6 31.01.2027 -
Armstrong Oko-Flex Levski Ativo 123 / 126 40% 5 31.01.2027 -
Andreas Helmersen Bodo/Glimt Ativo 120 / 108 40% 5 30.01.2027 -
Wandile Duba Maritzburg United Ativo 108 / 118 40% 3 30.01.2027 -
Aaron Drinan Swindon Town Ativo 96 / 105 40% 1 30.01.2027 -
Vegard Erlien Tromso Ativo 132 / 127 40% 6 28.01.2027 -
Chinedu Geoffrey Krylya Sovetov Ativo 119 / 107 40% 4 26.01.2027 -
Jonathan Okoronkwo Torpedo Moscow Ativo 105 / 103 40% 2 26.01.2027 -
Ole Sæter Valerenga Ativo 118 / 128 40% 7 25.01.2027 -
Veljko Birmančević Ferencvaros Ativo 138 / 142 40% 6 21.01.2027 -
Ali Youssef Apollon Ativo 116 / 105 40% 1 21.01.2027 -
Edarlyn Reyes Arsenal Tula Ativo 117 / 114 40% 1 21.01.2027 -
Paul Ngongo Aalesund Ativo 99 / 101 40% 7 18.01.2027 -
Erik Botheim Viking Ativo 126 / 114 40% 10 17.01.2027 -
Leandro Godoy CSKA Sofia Ativo 125 / 111 40% 1 17.01.2027 -
John Yeboah Venezia Ativo 117 / 114 40% 1 15.01.2027 -
Camilo Durán Bloemfontein Celtic Ativo 111 / 116 40% 8 14.01.2027 -
Jan Hubocan Ferencvaros Ativo 124 / 133 40% 1 14.01.2027 -
Ammar Ramadan DAC Dunajska Streda Ativo 119 / 123 40% 5 11.01.2027 -
Prince Ukachukwu Victoria United Ativo 108 / 97 40% 1 11.01.2027 -
Ante Aralica Lokomotiv Sofia Ativo 117 / 109 40% 3 10.01.2027 -
Radek Šiler Podbrezova Ativo 110 / 108 40% 4 09.01.2027 -
Ola Brynhildsen Bodo/Glimt Ativo 126 / 120 40% 7 08.01.2027 -
Etiosa Ighodaro Kaizer Chiefs Ativo 113 / 127 40% 7 07.01.2027 -
Magnus Lankhof Dahlby Stabaek Ativo 111 / 103 40% 8 04.01.2027 -
Pedro Marques Apollon Ativo 117 / 114 40% 1 04.01.2027 -
Samuel Kalu Botev Plovdiv Ativo 123 / 121 40% 5 02.01.2027 -
Dilan Ortíz Ufa Ativo 102 / 108 40% 2 31.12.2026 -
Petter Nosa Dahl Borussia Mönchengladbach Ativo 113 / 129 40% 1 29.12.2026 -
Troy Parrott Betis Ativo 129 / 132 40% 1 27.12.2026 -
Róbert Polievka MTK Budapest Ativo 113 / 113 40% 3 24.12.2026 -
Matej Trusa DAC Dunajska Streda Ativo 110 / 103 40% 4 24.12.2026 -
Bahlul Mammadov Inter Ativo 120 / 128 40% 2 23.12.2026 -
Manu Nieto Andorra Ativo 108 / 130 40% 3 22.12.2026 -
Jerome Karelse Golden Arrows Ativo 112 / 113 40% 1 20.12.2026 -
Tenton Yenne Baltika Ativo 105 / 115 40% 2 18.12.2026 -
Ádin Molnár MTK Budapest Ativo 117 / 121 40% 2 18.12.2026 -
Dennis Gjengaar Valerenga Ativo 104 / 121 40% 4 17.12.2026 -
Mathias Grundetjern Stabaek Ativo 115 / 115 40% 5 16.12.2026 -
Dávid Ďuriš Rosenborg Ativo 122 / 116 40% 3 10.12.2026 -
Jesper Cornelius IK Start Ativo 105 / 105 40% 1 08.12.2026 -
Denzel Jubitana Neftchi Ativo 127 / 114 40% 2 06.12.2026 -
Lebo Mothiba Mamelodi Sundowns Ativo 115 / 98 40% 1 04.12.2026 -
Breel Embolo Atlanta United FC Ativo 142 / 121 40% 1 30.11.2026 -
Iqraam Rayners Mamelodi Sundowns Ativo 138 / 134 40% 4 28.11.2026 -
Manprit Sarkaria Austria Wien Ativo 108 / 121 40% 2 26.11.2026 -
Sandi Elsnik NK Domzale Ativo 107 / 106 40% 4 24.11.2026 -
Sam Nombe Milton Keynes Dons Ativo 102 / 119 40% 2 21.11.2026 -
Liel Abada Charlotte Football Club Ativo 134 / 135 40% 6 19.11.2026 -
Jalal Abdullai Molde Ativo 111 / 116 40% 2 16.11.2026 -
Marcus Browne AFC Wimbledon Ativo 107 / 112 40% 2 06.11.2026 -
Jhon Murillo America de Cali Ativo 119 / 124 40% 1 01.11.2026 -
Yegor Golenkov Rostov Ativo 124 / 121 40% 2 30.10.2026 -
Mathias Sauer Sandefjord Ativo 103 / 104 40% 3 27.10.2026 -
Isaac Matondo Koper Ativo 114 / 108 40% 1 24.10.2026 -
German Onugkha Rodina Ativo 121 / 110 40% 1 23.10.2026 -
Mohamed Ofkir Valerenga Ativo 121 / 99 40% 3 21.10.2026 -
Lucas Ravn-Haren Valerenga Ativo 102 / 104 40% 2 19.10.2026 -
Sory Diarra Haugesund Ativo 104 / 111 40% 5 19.10.2026 -
Zakaria Mugeese Odd Ativo 112 / 112 40% 3 17.10.2026 -
Krisztian Varga Haladas Ativo 109 / 115 40% 1 11.10.2026 -
Sebastian Holm Mathisen Sandefjord Ativo 100 / 101 40% 2 25.09.2026 -
Stephen Humphrys Bradford City Ativo 112 / 104 40% 3 24.09.2026 -
Sveinn Aron Guðjohnsen Vikingur Ativo 110 / 119 40% 1 23.09.2026 -
Örvar Eggertsson Stjarnan Ativo 111 / 108 40% 1 18.09.2026 -
Bojan Radulović Huddersfield Town Ativo 104 / 115 40% 1 17.09.2026 -
Ramiro Ruiz Rodríguez Atlético Tucumán Ativo 128 / 119 40% 1 16.09.2026 -
Marcos Camarda Santiago Wanderers Ativo 101 / 100 40% 1 15.09.2026 -
Chuchu Ramírez Nacional Ativo 140 / 139 40% 1 13.09.2026 -
Oscar Osorio Atletico Venezuela Ativo 104 / 111 40% 1 11.09.2026 -
Eric Ramírez Carabobo Ativo 100 / 106 40% 1 08.09.2026 -